Time;durP1;ratioP1;P1;durP2;ratioP2;P2;SDS_P1;SDS_P2;PMS_P1;PMS_P2;Temp;Humidity;BMP_temperature;BMP_pressure;BME280_temperature;BME280_humidity;BME280_pressure;Samples;Min_cycle;Max_cycle;Signal;HPM_P1;HPM_P2
2021/12/03 00:00:57;;;;;;;1.70;1.30;;;;;;;0.36;100.00;95692.78;5069365;28;20206;-84
2021/12/03 00:03:26;;;;;;;1.60;1.50;;;;;;;0.32;100.00;95687.03;5064069;28;20233;-84
2021/12/03 00:05:57;;;;;;;2.67;1.70;;;;;;;0.36;100.00;95698.91;5067034;28;20282;-84
2021/12/03 00:08:25;;;;;;;2.00;1.47;;;;;;;0.35;100.00;95701.75;5053302;28;20221;-84
2021/12/03 00:10:56;;;;;;;1.50;1.33;;;;;;;0.37;100.00;95705.88;5071522;28;20201;-84
2021/12/03 00:13:23;;;;;;;1.80;1.60;;;;;;;0.43;100.00;95714.09;5078382;28;20204;-84
2021/12/03 00:15:51;;;;;;;2.00;1.60;;;;;;;0.47;100.00;95710.91;5070134;28;20204;-84
2021/12/03 00:18:19;;;;;;;2.30;1.80;;;;;;;0.42;100.00;95710.66;5060444;28;20213;-84
2021/12/03 00:20:49;;;;;;;2.60;1.87;;;;;;;0.44;100.00;95719.25;5069539;28;20200;-84
2021/12/03 00:23:17;;;;;;;2.27;1.80;;;;;;;0.45;100.00;95710.25;5061964;28;20214;-83
2021/12/03 00:25:44;;;;;;;2.87;2.03;;;;;;;0.45;100.00;95712.91;5062980;28;20198;-84
2021/12/03 00:28:11;;;;;;;1.90;1.50;;;;;;;0.44;100.00;95705.97;5076792;28;20224;-84
2021/12/03 00:30:39;;;;;;;2.53;1.97;;;;;;;0.47;100.00;95716.22;5062197;28;20205;-84
2021/12/03 00:33:07;;;;;;;2.87;2.10;;;;;;;0.49;100.00;95719.53;5067147;28;20199;-84
2021/12/03 00:35:35;;;;;;;3.07;1.67;;;;;;;0.49;100.00;95721.34;5068110;28;20244;-84
2021/12/03 00:38:04;;;;;;;3.00;1.80;;;;;;;0.47;100.00;95716.22;5071124;28;20273;-85
2021/12/03 00:40:34;;;;;;;2.47;1.60;;;;;;;0.48;100.00;95728.50;5065204;28;20195;-84
2021/12/03 00:43:02;;;;;;;1.73;1.60;;;;;;;0.54;100.00;95721.63;5069178;28;20288;-84
2021/12/03 00:45:31;;;;;;;2.37;1.70;;;;;;;0.53;100.00;95734.06;5067376;28;20295;-84
2021/12/03 00:47:59;;;;;;;1.93;1.73;;;;;;;0.56;100.00;95736.38;5055748;28;20548;-84
2021/12/03 00:50:27;;;;;;;1.90;1.67;;;;;;;0.58;100.00;95742.34;5066781;28;20209;-85
2021/12/03 00:52:55;;;;;;;2.27;1.60;;;;;;;0.54;100.00;95751.66;5080781;28;20255;-84
2021/12/03 00:55:25;;;;;;;1.73;1.60;;;;;;;0.48;100.00;95756.88;5054571;28;20213;-85
2021/12/03 00:57:52;;;;;;;2.37;2.00;;;;;;;0.39;100.00;95756.16;5072746;28;20220;-84
2021/12/03 01:00:23;;;;;;;2.73;2.30;;;;;;;0.37;100.00;95769.59;5068421;28;20224;-84
2021/12/03 01:02:51;;;;;;;3.27;1.80;;;;;;;0.36;100.00;95775.09;5070607;28;20247;-84
2021/12/03 01:05:18;;;;;;;2.73;2.00;;;;;;;0.35;100.00;95771.59;5069846;28;20240;-84
2021/12/03 01:07:46;;;;;;;4.17;2.30;;;;;;;0.34;100.00;95777.13;5058696;28;20224;-85
2021/12/03 01:10:13;;;;;;;2.23;1.60;;;;;;;0.30;100.00;95781.97;5056681;28;20196;-85
2021/12/03 01:12:42;;;;;;;2.17;1.97;;;;;;;0.25;100.00;95767.59;5066497;28;20201;-84
2021/12/03 01:15:12;;;;;;;2.10;1.80;;;;;;;0.26;100.00;95780.66;5067102;28;20213;-84
2021/12/03 01:17:40;;;;;;;2.17;1.97;;;;;;;0.31;100.00;95794.25;5058521;28;20221;-84
2021/12/03 01:20:10;;;;;;;2.00;1.70;;;;;;;0.34;100.00;95801.81;5069873;28;20197;-85
2021/12/03 01:22:38;;;;;;;2.27;2.07;;;;;;;0.32;100.00;95800.38;5069384;28;20205;-84
2021/12/03 01:25:07;;;;;;;3.00;2.10;;;;;;;0.35;100.00;95803.47;5068102;28;20205;-84
2021/12/03 01:27:34;;;;;;;2.33;2.00;;;;;;;0.37;100.00;95806.78;5067376;28;20220;-84
2021/12/03 01:30:03;;;;;;;2.40;2.10;;;;;;;0.32;100.00;95814.47;5062621;28;20284;-85
2021/12/03 01:32:30;;;;;;;3.07;2.20;;;;;;;0.40;100.00;95837.47;5058576;28;20236;-84
2021/12/03 01:34:58;;;;;;;2.70;2.10;;;;;;;0.42;100.00;95835.47;5062832;28;20217;-84
2021/12/03 01:37:25;;;;;;;2.27;2.03;;;;;;;0.47;100.00;95849.03;5082224;28;20208;-85
2021/12/03 01:39:52;;;;;;;2.23;1.80;;;;;;;0.46;100.00;95855.34;5067746;28;20215;-84
2021/12/03 01:42:19;;;;;;;4.80;2.27;;;;;;;0.49;100.00;95857.66;5065420;28;20208;-83
2021/12/03 01:44:46;;;;;;;3.00;1.90;;;;;;;0.49;100.00;95865.63;5062197;28;20219;-84
2021/12/03 01:47:15;;;;;;;2.70;2.07;;;;;;;0.39;100.00;95854.41;5059190;28;20222;-84
2021/12/03 01:49:42;;;;;;;2.43;2.00;;;;;;;0.42;100.00;95859.38;5062601;28;20292;-84
2021/12/03 01:52:09;;;;;;;2.40;2.00;;;;;;;0.48;100.00;95860.47;5083119;28;20215;-84
2021/12/03 01:54:36;;;;;;;2.23;1.90;;;;;;;0.52;100.00;95867.06;5068092;28;20248;-84
2021/12/03 01:57:04;;;;;;;2.63;1.73;;;;;;;0.55;100.00;95878.16;5063253;28;20197;-84
2021/12/03 01:59:31;;;;;;;3.13;1.80;;;;;;;0.46;100.00;95876.59;5085532;28;20304;-84
2021/12/03 02:01:59;;;;;;;3.67;2.80;;;;;;;0.53;100.00;95895.28;5070351;28;20295;-84
2021/12/03 02:04:28;;;;;;;3.90;2.30;;;;;;;0.48;100.00;95890.53;5069708;28;20233;-84
2021/12/03 02:06:55;;;;;;;3.40;2.00;;;;;;;0.53;100.00;95906.75;5078545;28;20201;-84
2021/12/03 02:09:22;;;;;;;3.50;2.67;;;;;;;0.52;100.00;95905.09;5069061;28;20219;-84
2021/12/03 02:11:49;;;;;;;2.97;2.20;;;;;;;0.47;100.00;95907.47;5066077;28;20267;-84
2021/12/03 02:14:16;;;;;;;4.37;2.67;;;;;;;0.48;100.00;95914.44;5068673;28;20283;-84
2021/12/03 02:16:45;;;;;;;3.37;2.43;;;;;;;0.43;100.00;95900.84;5061553;28;20264;-84
2021/12/03 02:19:12;;;;;;;3.37;2.87;;;;;;;0.42;100.00;95911.66;5069386;28;20297;-84
2021/12/03 02:21:41;;;;;;;3.80;2.57;;;;;;;0.34;100.00;95902.72;5065508;28;20204;-84
2021/12/03 02:24:09;;;;;;;3.03;2.60;;;;;;;0.41;100.00;95908.19;5069996;28;20205;-84
2021/12/03 02:26:36;;;;;;;3.57;2.63;;;;;;;0.42;100.00;95916.97;5059604;28;20205;-84
2021/12/03 02:29:04;;;;;;;4.43;2.83;;;;;;;0.35;100.00;95899.06;5071601;28;20220;-84
2021/12/03 02:31:31;;;;;;;4.50;2.47;;;;;;;0.33;100.00;95906.41;5069247;28;20202;-85
2021/12/03 02:33:58;;;;;;;4.40;2.80;;;;;;;0.28;100.00;95903.44;5070762;28;20205;-83
2021/12/03 02:36:26;;;;;;;3.20;2.63;;;;;;;0.32;100.00;95914.56;5078193;28;20297;-84
2021/12/03 02:38:54;;;;;;;5.97;2.70;;;;;;;0.21;100.00;95899.03;5070574;28;20205;-84
2021/12/03 02:41:22;;;;;;;3.57;2.83;;;;;;;0.23;100.00;95905.00;5074001;28;20200;-84
2021/12/03 02:43:49;;;;;;;3.83;2.77;;;;;;;0.20;100.00;95900.84;5062835;28;20227;-85
2021/12/03 02:46:16;;;;;;;5.47;2.53;;;;;;;0.23;100.00;95895.22;5060445;28;20222;-84
2021/12/03 02:48:43;;;;;;;3.20;2.47;;;;;;;0.21;100.00;95901.69;5090142;28;20213;-84
2021/12/03 02:51:11;;;;;;;3.10;2.40;;;;;;;0.20;100.00;95894.72;5073241;28;20226;-84
2021/12/03 02:53:39;;;;;;;2.90;2.23;;;;;;;0.16;100.00;95898.75;5076965;28;20303;-84
2021/12/03 02:56:09;;;;;;;5.30;2.17;;;;;;;0.18;100.00;95896.72;5073756;28;20200;-84
2021/12/03 02:58:36;;;;;;;2.67;2.13;;;;;;;0.15;100.00;95900.56;5071351;28;20200;-84
2021/12/03 03:01:05;;;;;;;2.90;1.90;;;;;;;0.11;100.00;95893.94;5071817;28;20212;-84
2021/12/03 03:03:33;;;;;;;1.70;1.60;;;;;;;0.15;100.00;95881.16;5091402;28;20308;-84
2021/12/03 03:06:02;;;;;;;1.80;1.70;;;;;;;0.16;100.00;95896.09;5073814;28;20208;-84
2021/12/03 03:08:29;;;;;;;3.13;2.10;;;;;;;0.13;100.00;95896.44;5092067;28;20237;-84
2021/12/03 03:10:58;;;;;;;6.47;2.00;;;;;;;0.22;100.00;95898.03;5069743;28;20265;-85
2021/12/03 03:13:26;;;;;;;3.67;2.10;;;;;;;0.19;100.00;95901.84;5077048;28;20224;-84
2021/12/03 03:15:54;;;;;;;2.53;2.13;;;;;;;0.16;100.00;95909.38;5072008;28;20211;-85
2021/12/03 03:18:24;;;;;;;3.10;2.23;;;;;;;0.16;100.00;95893.44;5071031;28;20232;-84
2021/12/03 03:20:53;;;;;;;2.20;2.00;;;;;;;0.25;100.00;95909.13;5065538;28;20209;-84
2021/12/03 03:23:22;;;;;;;3.37;2.03;;;;;;;0.26;100.00;95909.94;5081154;28;20228;-84
2021/12/03 03:25:51;;;;;;;2.40;2.00;;;;;;;0.35;100.00;95915.00;5070834;28;20289;-84
2021/12/03 03:28:20;;;;;;;2.87;2.30;;;;;;;0.42;100.00;95909.00;5073052;28;20304;-84
2021/12/03 03:30:51;;;;;;;3.10;2.13;;;;;;;0.44;100.00;95928.22;5072240;28;20201;-84
2021/12/03 03:33:19;;;;;;;2.73;2.20;;;;;;;0.42;100.00;95925.78;5065710;28;20204;-84
2021/12/03 03:35:46;;;;;;;2.87;2.20;;;;;;;0.38;100.00;95935.91;5066082;28;20209;-85
2021/12/03 03:38:14;;;;;;;3.50;2.03;;;;;;;0.35;100.00;95944.22;5075819;28;20216;-84
2021/12/03 03:40:43;;;;;;;2.97;2.37;;;;;;;0.29;100.00;95944.13;5069096;28;20296;-84
2021/12/03 03:43:11;;;;;;;2.00;1.80;;;;;;;0.23;100.00;95942.16;5060670;28;20210;-85
2021/12/03 03:45:41;;;;;;;2.47;2.07;;;;;;;0.13;100.00;95941.56;5070841;28;20340;-85
2021/12/03 03:48:10;;;;;;;2.67;2.40;;;;;;;0.05;100.00;95939.78;5066172;28;20232;-84
2021/12/03 03:50:38;;;;;;;2.23;2.00;;;;;;;0.10;100.00;95939.25;5054693;28;20210;-84
2021/12/03 03:53:06;;;;;;;3.27;2.10;;;;;;;0.03;100.00;95939.13;5067251;28;20293;-84
2021/12/03 03:55:33;;;;;;;2.07;1.80;;;;;;;-0.04;100.00;95924.91;5065715;28;20197;-84
2021/12/03 03:58:02;;;;;;;2.80;2.10;;;;;;;-0.03;100.00;95932.72;5070257;28;20197;-84
2021/12/03 04:00:32;;;;;;;2.30;2.10;;;;;;;-0.06;100.00;95927.75;5069968;28;20322;-84
2021/12/03 04:02:59;;;;;;;2.30;2.03;;;;;;;-0.07;100.00;95930.56;5061820;28;20225;-84
2021/12/03 04:05:28;;;;;;;2.67;2.40;;;;;;;-0.06;100.00;95945.47;5072801;28;20189;-84
2021/12/03 04:07:56;;;;;;;3.33;2.90;;;;;;;-0.12;100.00;95938.22;5060701;28;20308;-84
2021/12/03 04:10:23;;;;;;;3.27;2.57;;;;;;;-0.11;100.00;95945.19;5067726;28;20233;-84
2021/12/03 04:12:51;;;;;;;3.43;2.10;;;;;;;-0.15;100.00;95947.34;5064552;28;20197;-84
2021/12/03 04:15:18;;;;;;;4.53;2.63;;;;;;;-0.16;100.00;95951.00;5071683;28;20189;-84
2021/12/03 04:17:45;;;;;;;3.33;2.30;;;;;;;-0.11;100.00;95951.34;5089736;28;20200;-84
2021/12/03 04:20:14;;;;;;;2.87;2.50;;;;;;;-0.18;100.00;95942.41;5065873;28;20205;-84
2021/12/03 04:22:43;;;;;;;6.67;2.70;;;;;;;-0.20;100.00;95952.38;5065268;28;20198;-84
2021/12/03 04:25:13;;;;;;;3.43;2.67;;;;;;;-0.25;100.00;95949.41;5068239;28;20201;-85
2021/12/03 04:27:40;;;;;;;3.33;2.73;;;;;;;-0.30;100.00;95950.91;5071067;28;20205;-84
2021/12/03 04:30:11;;;;;;;4.10;2.70;;;;;;;-0.35;100.00;95940.84;5055598;28;20293;-84
2021/12/03 04:32:39;;;;;;;3.93;2.70;;;;;;;-0.23;100.00;95952.72;5068121;28;20272;-84
2021/12/03 04:35:08;;;;;;;3.47;2.50;;;;;;;-0.19;100.00;95948.72;5065112;28;20209;-85
2021/12/03 04:37:35;;;;;;;2.50;2.27;;;;;;;-0.17;100.00;95952.00;5065592;28;20202;-84
2021/12/03 04:40:05;;;;;;;3.30;2.07;;;;;;;-0.17;100.00;95952.00;5079862;28;20272;-84
2021/12/03 04:42:33;;;;;;;6.70;2.43;;;;;;;-0.22;100.00;95948.22;5054149;28;20201;-85
2021/12/03 04:45:00;;;;;;;3.87;1.80;;;;;;;-0.26;100.00;95958.38;5081535;28;20215;-84
2021/12/03 04:47:27;;;;;;;2.27;1.63;;;;;;;-0.31;100.00;95954.56;5091515;28;20193;-84
2021/12/03 04:49:54;;;;;;;2.10;1.70;;;;;;;-0.37;100.00;95961.41;5071168;28;20244;-84
2021/12/03 04:52:21;;;;;;;1.80;1.60;;;;;;;-0.36;100.00;95972.84;5068614;28;20205;-84
2021/12/03 04:54:48;;;;;;;1.63;1.37;;;;;;;-0.43;100.00;95967.41;5067409;28;20268;-85
2021/12/03 04:57:17;;;;;;;3.70;1.60;;;;;;;-0.45;100.00;95967.56;5068237;28;20240;-85
2021/12/03 04:59:44;;;;;;;1.87;1.53;;;;;;;-0.48;100.00;95975.03;5081093;28;20211;-85
2021/12/03 05:02:11;;;;;;;1.50;1.40;;;;;;;-0.47;100.00;95982.81;5066008;28;20315;-85
2021/12/03 05:04:39;;;;;;;3.00;1.90;;;;;;;-0.40;100.00;95993.56;5056567;28;20327;-84
2021/12/03 05:07:26;;;;;;;3.60;1.67;;;;;;;-0.43;100.00;95999.22;5064039;28;20254;-84
2021/12/03 05:09:54;;;;;;;1.70;1.40;;;;;;;-0.50;100.00;96000.88;5062070;28;20233;-84
2021/12/03 05:12:22;;;;;;;1.50;1.30;;;;;;;-0.59;100.00;95996.59;5086561;28;20204;-85
2021/12/03 05:14:49;;;;;;;2.40;1.40;;;;;;;-0.59;100.00;96009.84;5059172;28;20201;-84
2021/12/03 05:17:16;;;;;;;1.83;1.53;;;;;;;-0.67;100.00;96012.53;5068253;28;20295;-85
2021/12/03 05:19:43;;;;;;;2.10;1.50;;;;;;;-0.65;100.00;96010.53;5063009;28;20205;-85
2021/12/03 05:22:12;;;;;;;2.30;1.40;;;;;;;-0.67;100.00;96018.66;5066361;28;20201;-85
2021/12/03 05:24:40;;;;;;;1.83;1.63;;;;;;;-0.61;100.00;96031.25;5063639;28;20264;-84
2021/12/03 05:27:07;;;;;;;1.37;1.27;;;;;;;-0.59;100.00;96031.91;5086016;28;20296;-84
2021/12/03 05:29:36;;;;;;;2.17;1.40;;;;;;;-0.57;100.00;96040.53;5070496;28;20232;-85
2021/12/03 05:32:03;;;;;;;1.53;1.10;;;;;;;-0.62;100.00;96042.03;5063026;28;20462;-84
2021/12/03 05:34:30;;;;;;;1.70;1.40;;;;;;;-0.64;100.00;96044.84;5062054;28;20510;-84
2021/12/03 05:36:57;;;;;;;2.40;1.83;;;;;;;-0.66;100.00;96056.59;5066856;28;20208;-84
2021/12/03 05:39:24;;;;;;;4.97;2.03;;;;;;;-0.67;100.00;96061.09;5064360;28;20221;-84
2021/12/03 05:41:52;;;;;;;3.93;1.97;;;;;;;-0.72;100.00;96071.38;5084668;28;20276;-84
2021/12/03 05:44:19;;;;;;;29.27;12.90;;;;;;;-0.76;100.00;96062.91;5069647;28;20274;-84
2021/12/03 05:46:47;;;;;;;18.23;8.50;;;;;;;-0.76;100.00;96078.81;5065615;28;20205;-84
2021/12/03 05:49:14;;;;;;;15.47;6.50;;;;;;;-0.80;100.00;96082.81;5063500;28;20232;-84
2021/12/03 05:51:42;;;;;;;5.13;2.77;;;;;;;-0.82;100.00;96087.44;5066329;28;20200;-84
2021/12/03 05:54:10;;;;;;;4.33;2.93;;;;;;;-0.79;100.00;96089.78;5064650;28;20220;-84
2021/12/03 05:56:37;;;;;;;4.20;2.50;;;;;;;-0.79;100.00;96100.38;5090936;28;20216;-85
2021/12/03 05:59:05;;;;;;;5.83;2.87;;;;;;;-0.76;100.00;96101.84;5083889;28;20212;-84
2021/12/03 06:01:32;;;;;;;2.73;1.40;;;;;;;-0.73;100.00;96098.06;5065485;28;20209;-84
2021/12/03 06:04:00;;;;;;;2.13;1.70;;;;;;;-0.66;100.00;96104.34;5059771;28;20324;-84
2021/12/03 06:06:28;;;;;;;2.50;1.70;;;;;;;-0.65;100.00;96106.00;5066644;28;20196;-85
2021/12/03 06:08:57;;;;;;;4.50;2.30;;;;;;;-0.61;100.00;96109.97;5068268;28;20220;-84
2021/12/03 06:11:24;;;;;;;4.23;2.80;;;;;;;-0.55;100.00;96109.31;5072455;28;20189;-85
2021/12/03 06:13:54;;;;;;;3.53;2.47;;;;;;;-0.54;100.00;96105.66;5072852;28;20242;-84
2021/12/03 06:16:21;;;;;;;2.30;2.10;;;;;;;-0.50;100.00;96110.44;5071826;28;20299;-84
2021/12/03 06:18:48;;;;;;;3.67;2.67;;;;;;;-0.45;100.00;96108.13;5073588;28;20189;-84
2021/12/03 06:21:17;;;;;;;5.83;3.80;;;;;;;-0.45;100.00;96109.97;5070336;28;20232;-85
2021/12/03 06:23:44;;;;;;;10.50;5.30;;;;;;;-0.47;100.00;96125.22;5070310;28;20236;-84
2021/12/03 06:26:12;;;;;;;8.23;5.27;;;;;;;-0.46;100.00;96121.56;5058499;28;20263;-85
2021/12/03 06:28:41;;;;;;;21.50;12.63;;;;;;;-0.52;100.00;96116.94;5058389;28;20240;-85
2021/12/03 06:31:09;;;;;;;18.80;11.10;;;;;;;-0.55;100.00;96117.25;5082718;28;20204;-84
2021/12/03 06:33:36;;;;;;;9.47;5.80;;;;;;;-0.55;100.00;96133.16;5063142;28;20202;-85
2021/12/03 06:36:04;;;;;;;5.67;3.67;;;;;;;-0.54;100.00;96126.88;5064726;28;20201;-85
2021/12/03 06:38:33;;;;;;;3.40;2.67;;;;;;;-0.58;100.00;96125.53;5078047;28;20228;-84
2021/12/03 06:41:02;;;;;;;5.87;4.40;;;;;;;-0.55;100.00;96127.88;5061099;28;20201;-84
2021/12/03 06:43:29;;;;;;;4.57;3.10;;;;;;;-0.60;100.00;96132.84;5064736;28;20244;-85
2021/12/03 06:45:56;;;;;;;4.83;2.60;;;;;;;-0.62;100.00;96135.66;5077641;28;20287;-85
2021/12/03 06:48:24;;;;;;;4.40;2.87;;;;;;;-0.61;100.00;96144.47;5064843;28;20232;-84
2021/12/03 06:50:51;;;;;;;4.67;3.30;;;;;;;-0.66;100.00;96149.41;5055823;28;20216;-84
2021/12/03 06:53:21;;;;;;;5.37;3.40;;;;;;;-0.66;100.00;96146.75;5062554;28;20216;-85
2021/12/03 06:55:52;;;;;;;5.63;3.33;;;;;;;-0.62;100.00;96146.28;5065578;28;20200;-84
2021/12/03 06:58:21;;;;;;;7.97;4.40;;;;;;;-0.57;100.00;96148.41;5069583;28;20201;-85
2021/12/03 07:00:50;;;;;;;12.33;7.00;;;;;;;-0.56;100.00;96166.81;5065762;28;20201;-84
2021/12/03 07:03:18;;;;;;;6.47;4.77;;;;;;;-0.54;100.00;96169.31;5063318;28;20491;-85
2021/12/03 07:05:45;;;;;;;6.43;4.47;;;;;;;-0.50;100.00;96162.66;5056935;28;20209;-85
2021/12/03 07:08:12;;;;;;;5.17;3.87;;;;;;;-0.54;100.00;96162.19;5066946;28;20309;-84
2021/12/03 07:10:40;;;;;;;5.63;3.40;;;;;;;-0.56;100.00;96179.25;5057744;28;20245;-84
2021/12/03 07:13:08;;;;;;;3.53;2.80;;;;;;;-0.62;100.00;96169.31;5068100;28;20272;-85
2021/12/03 07:15:36;;;;;;;5.33;3.10;;;;;;;-0.62;100.00;96169.31;5068166;28;20213;-85
2021/12/03 07:18:03;;;;;;;4.27;2.77;;;;;;;-0.54;100.00;96179.91;5059031;28;20218;-85
2021/12/03 07:20:30;;;;;;;7.27;3.00;;;;;;;-0.54;100.00;96171.97;5060157;28;20264;-85
2021/12/03 07:22:57;;;;;;;6.63;3.43;;;;;;;-0.63;100.00;96183.56;5064695;28;20194;-85
2021/12/03 07:25:25;;;;;;;7.87;4.50;;;;;;;-0.66;100.00;96186.53;5079869;28;20202;-85
2021/12/03 07:27:52;;;;;;;5.97;3.30;;;;;;;-0.67;100.00;96187.53;5058885;28;20205;-84
2021/12/03 07:30:22;;;;;;;5.23;3.30;;;;;;;-0.67;100.00;96188.34;5060162;28;20222;-84
2021/12/03 07:32:49;;;;;;;6.10;3.90;;;;;;;-0.61;100.00;96186.88;5054277;28;20239;-84
2021/12/03 07:35:17;;;;;;;8.53;3.53;;;;;;;-0.58;100.00;96183.88;5064848;28;20196;-84
2021/12/03 07:37:44;;;;;;;4.70;3.73;;;;;;;-0.62;100.00;96179.91;5065030;28;20226;-85
2021/12/03 07:40:13;;;;;;;6.33;3.80;;;;;;;-0.56;100.00;96190.69;5064035;28;20213;-81
2021/12/03 07:42:41;;;;;;;5.30;4.27;;;;;;;-0.49;100.00;96201.47;5068344;28;20212;-81
2021/12/03 07:45:11;;;;;;;8.60;4.70;;;;;;;-0.51;100.00;96198.16;5065811;28;20277;-81
2021/12/03 07:47:39;;;;;;;4.97;3.47;;;;;;;-0.48;100.00;96203.13;5070335;28;20205;-84
2021/12/03 07:50:10;;;;;;;4.87;3.83;;;;;;;-0.53;100.00;96195.66;5062141;28;20275;-84
2021/12/03 07:52:37;;;;;;;8.33;5.00;;;;;;;-0.51;100.00;96198.97;5062599;28;20190;-84
2021/12/03 07:55:05;;;;;;;4.90;3.70;;;;;;;-0.48;100.00;96208.41;5068262;28;20233;-84
2021/12/03 07:57:33;;;;;;;6.73;4.40;;;;;;;-0.51;100.00;96206.91;5061937;28;20245;-84
2021/12/03 08:00:01;;;;;;;9.43;5.80;;;;;;;-0.51;100.00;96206.91;5060645;28;20206;-84
2021/12/03 08:02:28;;;;;;;5.50;4.43;;;;;;;-0.48;100.00;96219.03;5067240;28;20248;-84
2021/12/03 08:04:58;;;;;;;9.50;5.87;;;;;;;-0.52;100.00;96223.03;5050494;28;20271;-84
2021/12/03 08:07:25;;;;;;;8.03;4.70;;;;;;;-0.51;100.00;96220.19;5064599;28;20213;-84
2021/12/03 08:09:52;;;;;;;15.03;9.23;;;;;;;-0.49;100.00;96227.97;5067190;28;20217;-84
2021/12/03 08:12:19;;;;;;;17.60;11.73;;;;;;;-0.51;100.00;96230.00;5064488;28;20204;-84
2021/12/03 08:14:46;;;;;;;15.23;9.77;;;;;;;-0.52;100.00;96238.94;5063141;28;20198;-84
2021/12/03 08:17:14;;;;;;;18.13;10.57;;;;;;;-0.51;100.00;96235.28;5065454;28;20224;-84
2021/12/03 08:19:41;;;;;;;12.33;8.23;;;;;;;-0.56;100.00;96226.97;5056985;28;20213;-84
2021/12/03 08:22:09;;;;;;;9.03;6.10;;;;;;;-0.59;100.00;96224.66;5062561;28;20227;-84
2021/12/03 08:24:36;;;;;;;8.60;5.13;;;;;;;-0.60;100.00;96230.97;5055081;28;20210;-84
2021/12/03 08:27:04;;;;;;;8.27;5.40;;;;;;;-0.60;100.00;96231.81;5071436;28;20487;-84
2021/12/03 08:29:31;;;;;;;10.33;6.20;;;;;;;-0.60;100.00;96228.31;5063198;28;20304;-83
2021/12/03 08:31:59;;;;;;;9.03;6.10;;;;;;;-0.63;100.00;96223.34;5065940;28;20217;-84
2021/12/03 08:34:26;;;;;;;10.80;6.30;;;;;;;-0.57;100.00;96234.09;5063850;28;20464;-84
2021/12/03 08:36:53;;;;;;;9.57;6.90;;;;;;;-0.58;100.00;96228.97;5077644;28;20303;-84
2021/12/03 08:39:21;;;;;;;11.67;8.37;;;;;;;-0.58;100.00;96234.25;5057980;28;20201;-84
2021/12/03 08:41:49;;;;;;;12.20;7.97;;;;;;;-0.54;100.00;96240.91;5067322;28;20272;-84
2021/12/03 08:44:16;;;;;;;11.53;7.93;;;;;;;-0.49;100.00;96249.19;5057282;28;20214;-84
2021/12/03 08:46:43;;;;;;;12.70;9.20;;;;;;;-0.47;100.00;96247.22;5060212;28;20213;-84
2021/12/03 08:49:15;;;;;;;14.03;8.43;;;;;;;-0.45;100.00;96239.94;5060364;28;20293;-84
2021/12/03 08:52:13;;;;;;;11.70;7.20;;;;;;;-0.32;100.00;96248.22;5079025;28;20202;-84
2021/12/03 08:54:51;;;;;;;10.87;5.50;;;;;;;-0.23;100.00;96255.19;5063165;28;20259;-84
2021/12/03 08:57:21;;;;;;;7.03;5.27;;;;;;;-0.16;100.00;96252.69;5064022;28;20202;-84
2021/12/03 08:59:50;;;;;;;6.90;5.17;;;;;;;-0.15;100.00;96249.03;5064708;28;20214;-84
2021/12/03 09:02:17;;;;;;;5.60;4.10;;;;;;;-0.14;100.00;96248.06;5065268;28;20328;-84
2021/12/03 09:04:45;;;;;;;5.43;3.97;;;;;;;-0.10;100.00;96247.56;5070192;28;20310;-84
2021/12/03 09:07:12;;;;;;;4.63;3.40;;;;;;;-0.07;100.00;96251.69;5058066;28;20194;-84
2021/12/03 09:09:41;;;;;;;4.57;2.80;;;;;;;-0.09;100.00;96246.56;5060175;28;20312;-84
2021/12/03 09:12:09;;;;;;;4.17;2.53;;;;;;;0.06;100.00;96245.88;5062527;28;20212;-84
2021/12/03 09:14:39;;;;;;;3.80;2.47;;;;;;;0.15;100.00;96248.38;5060350;28;20332;-84
2021/12/03 09:17:21;;;;;;;5.93;4.13;;;;;;;0.13;100.00;96239.75;5060855;28;20202;-84
2021/12/03 09:19:55;;;;;;;4.03;2.90;;;;;;;0.23;100.00;96255.50;5071174;28;20202;-84
2021/12/03 09:22:31;;;;;;;2.93;2.00;;;;;;;0.09;100.00;96250.84;5062624;28;20209;-83
2021/12/03 09:25:00;;;;;;;3.10;1.63;;;;;;;0.18;100.00;96265.75;5061216;28;20208;-84
2021/12/03 09:27:27;;;;;;;2.43;1.83;;;;;;;0.12;100.00;96254.00;5064570;28;20260;-84
2021/12/03 09:29:56;;;;;;;2.33;1.80;;;;;;;0.19;100.00;96254.16;5068446;28;20298;-84
2021/12/03 09:32:26;;;;;;;4.60;2.23;;;;;;;0.31;100.00;96258.13;5065105;28;20200;-84
2021/12/03 09:34:54;;;;;;;2.83;2.20;;;;;;;0.44;100.00;96252.28;5064019;28;20259;-85
2021/12/03 09:37:22;;;;;;;2.90;2.07;;;;;;;0.50;100.00;96248.97;5068932;28;20206;-84
2021/12/03 09:41:22;;;;;;;3.17;2.20;;;;;;;0.61;100.00;96253.88;5139720;27;20563;-83
2021/12/03 09:43:54;;;;;;;2.17;1.97;;;;;;;0.68;100.00;96250.38;5156126;27;20236;-83
2021/12/03 09:46:25;;;;;;;2.23;1.87;;;;;;;0.56;100.00;96259.72;5111343;28;20214;-84
2021/12/03 09:51:45;;;;;;;5.00;2.33;;;;;;;0.59;100.00;96255.91;5100750;28;20295;-83
2021/12/03 09:54:25;;;;;;;7.60;2.70;;;;;;;0.70;100.00;96251.03;5100629;27;20306;-83
2021/12/03 09:56:59;;;;;;;5.73;2.73;;;;;;;0.77;100.00;96248.50;5100264;28;20298;-83
2021/12/03 10:02:22;;;;;;;2.90;2.00;;;;;;;0.90;100.00;96250.63;5094168;28;20200;-83
2021/12/03 10:13:44;;;;;;;4.20;2.90;;;;;;;1.23;98.79;96228.19;5093366;27;20602;-83
2021/12/03 10:16:40;;;;;;;3.30;2.07;;;;;;;1.28;100.00;96220.50;5093364;28;20209;-83
2021/12/03 10:19:21;;;;;;;3.03;2.13;;;;;;;1.41;99.33;96225.25;5081931;28;20205;-83
2021/12/03 10:22:07;;;;;;;4.83;3.10;;;;;;;1.33;95.31;96222.66;5074765;28;20201;-82
2021/12/03 10:30:32;;;;;;;2.77;1.93;;;;;;;1.47;93.01;96209.41;5069820;28;20236;-83
2021/12/03 10:33:27;;;;;;;1.60;1.50;;;;;;;1.72;94.45;96209.22;5081507;28;20236;-83
2021/12/03 10:36:16;;;;;;;1.50;1.37;;;;;;;1.97;93.89;96209.84;5072712;28;20206;-83
2021/12/03 10:38:51;;;;;;;2.80;1.60;;;;;;;2.04;91.78;96216.13;5080968;28;20222;-84
2021/12/03 10:41:29;;;;;;;2.53;1.40;;;;;;;1.96;89.23;96201.03;5086175;28;20209;-84
2021/12/03 10:44:08;;;;;;;1.13;1.00;;;;;;;1.72;88.18;96203.91;5078446;28;20203;-83
2021/12/03 10:46:55;;;;;;;2.83;1.63;;;;;;;1.90;89.10;96193.75;5073640;28;20272;-84
2021/12/03 10:49:43;;;;;;;1.70;1.27;;;;;;;2.16;90.47;96188.03;5066728;28;20209;-84
2021/12/03 10:52:26;;;;;;;3.07;1.50;;;;;;;2.35;88.79;96192.00;5072225;28;20230;-83
2021/12/03 10:57:59;;;;;;;1.93;1.70;;;;;;;2.71;90.92;96179.59;5073674;28;20212;-84
2021/12/03 13:21:20;;;;;;;5.03;2.57;;;;;;;0.66;100.00;96119.53;5030464;28;20197;-84
2021/12/03 14:00:26;;;;;;;3.90;3.00;;;;;;;1.01;100.00;96106.69;5064870;28;20210;-83
2021/12/03 14:37:46;;;;;;;2.77;2.33;;;;;;;0.91;100.00;96106.91;5060111;28;20203;-83
2021/12/03 14:43:06;;;;;;;2.17;1.90;;;;;;;0.83;100.00;96106.97;5042457;28;20228;-83
2021/12/03 14:48:34;;;;;;;2.97;1.80;;;;;;;0.92;100.00;96118.38;5018886;28;20220;-83
2021/12/03 14:51:21;;;;;;;3.30;2.70;;;;;;;0.89;100.00;96114.25;5057668;28;20204;-83
2021/12/03 14:57:17;;;;;;;5.40;1.90;;;;;;;1.02;100.00;96124.31;5059302;28;20316;-83
2021/12/03 15:00:09;;;;;;;3.80;1.73;;;;;;;0.97;100.00;96124.81;5058514;28;20210;-83
2021/12/03 15:03:04;;;;;;;3.43;2.40;;;;;;;1.01;100.00;96138.59;5066476;28;20201;-83
2021/12/03 15:08:34;;;;;;;4.10;2.60;;;;;;;0.96;100.00;96141.78;5061170;28;20198;-84
2021/12/03 15:11:48;;;;;;;2.40;2.20;;;;;;;0.91;100.00;96132.69;5054819;28;20214;-83
2021/12/03 15:23:54;;;;;;;4.80;3.23;;;;;;;0.58;100.00;96140.84;5111087;27;20220;-83
2021/12/03 15:29:44;;;;;;;4.33;3.53;;;;;;;0.46;100.00;96144.84;5102969;28;20220;-85
2021/12/03 15:32:13;;;;;;;6.53;2.70;;;;;;;0.34;100.00;96147.06;5094630;27;20214;-83
2021/12/03 15:34:57;;;;;;;5.57;2.50;;;;;;;0.29;100.00;96148.59;5100804;28;20291;-83
2021/12/03 15:37:42;;;;;;;2.23;2.03;;;;;;;0.19;100.00;96139.97;5103370;28;20207;-83
2021/12/03 15:40:23;;;;;;;3.47;2.53;;;;;;;0.05;100.00;96130.09;5094908;28;20227;-83
2021/12/03 15:57:12;;;;;;;3.90;2.90;;;;;;;-0.13;100.00;96083.34;5088396;28;20207;-86
2021/12/03 16:05:17;;;;;;;5.27;3.00;;;;;;;-0.09;100.00;96065.28;5122290;27;20200;-86
2021/12/03 16:10:44;;;;;;;7.07;4.30;;;;;;;0.00;100.00;96059.75;5115084;28;20209;-87
2021/12/03 16:13:24;;;;;;;5.70;3.40;;;;;;;0.14;100.00;96068.00;5125597;27;20206;-87
2021/12/03 16:18:55;;;;;;;4.33;2.97;;;;;;;0.25;100.00;96057.00;5113199;27;20230;-85
2021/12/03 16:44:10;;;;;;;3.90;2.50;;;;;;;0.35;100.00;96054.94;5120416;27;20271;-85
2021/12/03 16:46:49;;;;;;;1.63;1.40;;;;;;;0.38;100.00;96062.56;5103723;28;20204;-85
2021/12/03 16:52:01;;;;;;;1.17;1.07;;;;;;;0.42;100.00;96053.25;5107184;28;20428;-85
2021/12/03 16:54:31;;;;;;;1.47;1.20;;;;;;;0.27;100.00;96065.59;5110300;28;20206;-85